sensor_id;sensor_type;location;lat;lon;timestamp;temperature;humidity
3790;DHT22;1910;49.042;9.028;2023-09-18T00:00:45;22.50;99.90
3790;DHT22;1910;49.042;9.028;2023-09-18T00:03:11;22.40;99.90
3790;DHT22;1910;49.042;9.028;2023-09-18T00:05:36;22.40;99.90
3790;DHT22;1910;49.042;9.028;2023-09-18T00:08:02;22.50;99.90
3790;DHT22;1910;49.042;9.028;2023-09-18T00:10:28;22.50;99.90
3790;DHT22;1910;49.042;9.028;2023-09-18T00:12:58;22.70;99.90
3790;DHT22;1910;49.042;9.028;2023-09-18T00:15:24;22.70;99.90
3790;DHT22;1910;49.042;9.028;2023-09-18T00:17:50;22.70;99.90
3790;DHT22;1910;49.042;9.028;2023-09-18T00:20:16;22.80;99.90
3790;DHT22;1910;49.042;9.028;2023-09-18T00:22:43;22.80;99.90
3790;DHT22;1910;49.042;9.028;2023-09-18T00:25:08;22.90;99.90
3790;DHT22;1910;49.042;9.028;2023-09-18T00:27:34;22.90;99.90
3790;DHT22;1910;49.042;9.028;2023-09-18T00:30:02;22.90;99.90
3790;DHT22;1910;49.042;9.028;2023-09-18T00:32:28;22.90;99.90
3790;DHT22;1910;49.042;9.028;2023-09-18T00:34:53;22.90;99.90
3790;DHT22;1910;49.042;9.028;2023-09-18T00:37:19;22.90;99.90
3790;DHT22;1910;49.042;9.028;2023-09-18T00:39:44;23.30;99.90
3790;DHT22;1910;49.042;9.028;2023-09-18T00:42:10;22.80;99.90
3790;DHT22;1910;49.042;9.028;2023-09-18T00:44:39;22.80;99.90
3790;DHT22;1910;49.042;9.028;2023-09-18T00:47:07;22.80;99.90
3790;DHT22;1910;49.042;9.028;2023-09-18T00:49:33;22.80;99.90
3790;DHT22;1910;49.042;9.028;2023-09-18T00:51:59;22.90;99.90
3790;DHT22;1910;49.042;9.028;2023-09-18T00:54:25;22.80;99.90
3790;DHT22;1910;49.042;9.028;2023-09-18T00:56:52;22.90;99.90
3790;DHT22;1910;49.042;9.028;2023-09-18T00:59:20;22.90;99.90
3790;DHT22;1910;49.042;9.028;2023-09-18T01:01:47;22.90;99.90
3790;DHT22;1910;49.042;9.028;2023-09-18T01:04:15;22.90;99.90
3790;DHT22;1910;49.042;9.028;2023-09-18T01:06:41;22.80;99.90
3790;DHT22;1910;49.042;9.028;2023-09-18T01:09:07;22.80;99.90
3790;DHT22;1910;49.042;9.028;2023-09-18T01:15:02;22.80;99.90
3790;DHT22;1910;49.042;9.028;2023-09-18T01:17:30;22.80;99.90
3790;DHT22;1910;49.042;9.028;2023-09-18T01:19:56;22.80;99.90
3790;DHT22;1910;49.042;9.028;2023-09-18T01:22:21;22.80;99.90
3790;DHT22;1910;49.042;9.028;2023-09-18T01:24:47;22.80;99.90
3790;DHT22;1910;49.042;9.028;2023-09-18T01:27:15;22.80;99.90
3790;DHT22;1910;49.042;9.028;2023-09-18T01:29:47;22.80;99.90
3790;DHT22;1910;49.042;9.028;2023-09-18T01:32:13;23.10;99.90
3790;DHT22;1910;49.042;9.028;2023-09-18T01:34:49;22.80;99.90
3790;DHT22;1910;49.042;9.028;2023-09-18T01:37:17;22.90;99.90
3790;DHT22;1910;49.042;9.028;2023-09-18T01:39:46;23.00;99.90
3790;DHT22;1910;49.042;9.028;2023-09-18T01:42:13;23.00;99.90
3790;DHT22;1910;49.042;9.028;2023-09-18T01:44:39;23.00;99.90
3790;DHT22;1910;49.042;9.028;2023-09-18T01:47:07;23.00;99.90
3790;DHT22;1910;49.042;9.028;2023-09-18T01:49:35;23.10;99.90
3790;DHT22;1910;49.042;9.028;2023-09-18T01:52:02;23.10;99.90
3790;DHT22;1910;49.042;9.028;2023-09-18T01:54:29;23.10;99.90
3790;DHT22;1910;49.042;9.028;2023-09-18T01:56:55;23.10;99.90
3790;DHT22;1910;49.042;9.028;2023-09-18T01:59:21;23.10;99.90
3790;DHT22;1910;49.042;9.028;2023-09-18T02:01:47;23.20;99.90
3790;DHT22;1910;49.042;9.028;2023-09-18T02:04:13;23.10;99.90
3790;DHT22;1910;49.042;9.028;2023-09-18T02:06:39;23.10;99.90
3790;DHT22;1910;49.042;9.028;2023-09-18T02:09:05;23.10;99.90
3790;DHT22;1910;49.042;9.028;2023-09-18T02:11:33;23.10;99.90
3790;DHT22;1910;49.042;9.028;2023-09-18T02:13:59;23.00;99.90
3790;DHT22;1910;49.042;9.028;2023-09-18T02:16:24;24.70;99.90
3790;DHT22;1910;49.042;9.028;2023-09-18T02:18:51;23.10;99.90
3790;DHT22;1910;49.042;9.028;2023-09-18T02:21:20;22.90;99.90
3790;DHT22;1910;49.042;9.028;2023-09-18T02:23:48;22.90;99.90
3790;DHT22;1910;49.042;9.028;2023-09-18T02:26:14;22.60;99.90
3790;DHT22;1910;49.042;9.028;2023-09-18T02:28:39;22.50;99.90
3790;DHT22;1910;49.042;9.028;2023-09-18T02:31:05;22.50;99.90
3790;DHT22;1910;49.042;9.028;2023-09-18T02:33:30;22.50;99.90
3790;DHT22;1910;49.042;9.028;2023-09-18T02:35:56;22.60;99.90
3790;DHT22;1910;49.042;9.028;2023-09-18T02:38:22;22.50;99.90
3790;DHT22;1910;49.042;9.028;2023-09-18T02:40:48;22.60;99.90
3790;DHT22;1910;49.042;9.028;2023-09-18T02:43:13;22.80;99.90
3790;DHT22;1910;49.042;9.028;2023-09-18T02:45:39;22.60;99.90
3790;DHT22;1910;49.042;9.028;2023-09-18T02:48:05;22.70;99.90
3790;DHT22;1910;49.042;9.028;2023-09-18T02:50:31;22.60;99.90
3790;DHT22;1910;49.042;9.028;2023-09-18T02:52:56;22.50;99.90
3790;DHT22;1910;49.042;9.028;2023-09-18T02:55:22;22.30;99.90
3790;DHT22;1910;49.042;9.028;2023-09-18T02:57:47;22.30;99.90
3790;DHT22;1910;49.042;9.028;2023-09-18T03:00:13;23.70;99.90
3790;DHT22;1910;49.042;9.028;2023-09-18T03:02:39;22.40;99.90
3790;DHT22;1910;49.042;9.028;2023-09-18T03:05:05;22.40;99.90
3790;DHT22;1910;49.042;9.028;2023-09-18T03:07:30;22.30;99.90
3790;DHT22;1910;49.042;9.028;2023-09-18T03:09:56;22.30;99.90
3790;DHT22;1910;49.042;9.028;2023-09-18T03:12:21;22.30;99.90
3790;DHT22;1910;49.042;9.028;2023-09-18T03:14:48;22.30;99.90
3790;DHT22;1910;49.042;9.028;2023-09-18T03:19:39;22.20;99.90
3790;DHT22;1910;49.042;9.028;2023-09-18T03:22:05;22.20;99.90
3790;DHT22;1910;49.042;9.028;2023-09-18T03:24:30;22.10;99.90
3790;DHT22;1910;49.042;9.028;2023-09-18T03:26:56;22.20;99.90
3790;DHT22;1910;49.042;9.028;2023-09-18T03:29:21;22.30;99.90
3790;DHT22;1910;49.042;9.028;2023-09-18T03:31:47;22.20;99.90
3790;DHT22;1910;49.042;9.028;2023-09-18T03:34:12;22.20;99.90
3790;DHT22;1910;49.042;9.028;2023-09-18T03:36:38;22.10;99.90
3790;DHT22;1910;49.042;9.028;2023-09-18T03:39:05;22.00;99.90
3790;DHT22;1910;49.042;9.028;2023-09-18T03:41:30;22.00;99.90
3790;DHT22;1910;49.042;9.028;2023-09-18T03:44:00;21.80;99.90
3790;DHT22;1910;49.042;9.028;2023-09-18T03:46:26;21.60;99.90
3790;DHT22;1910;49.042;9.028;2023-09-18T03:48:52;21.60;99.90
3790;DHT22;1910;49.042;9.028;2023-09-18T03:51:18;22.50;99.90
3790;DHT22;1910;49.042;9.028;2023-09-18T03:53:44;21.50;99.90
3790;DHT22;1910;49.042;9.028;2023-09-18T03:56:10;21.60;99.90
3790;DHT22;1910;49.042;9.028;2023-09-18T03:58:36;21.80;99.90
3790;DHT22;1910;49.042;9.028;2023-09-18T04:01:01;21.90;99.90
3790;DHT22;1910;49.042;9.028;2023-09-18T04:03:27;22.00;99.90
3790;DHT22;1910;49.042;9.028;2023-09-18T04:05:52;22.20;99.90
3790;DHT22;1910;49.042;9.028;2023-09-18T04:08:18;22.20;99.90
3790;DHT22;1910;49.042;9.028;2023-09-18T04:10:43;22.30;99.90
3790;DHT22;1910;49.042;9.028;2023-09-18T04:13:10;22.50;99.90
3790;DHT22;1910;49.042;9.028;2023-09-18T04:15:37;22.50;99.90
3790;DHT22;1910;49.042;9.028;2023-09-18T04:18:04;22.50;99.90
3790;DHT22;1910;49.042;9.028;2023-09-18T04:20:30;22.50;99.90
3790;DHT22;1910;49.042;9.028;2023-09-18T04:23:22;22.40;99.90
3790;DHT22;1910;49.042;9.028;2023-09-18T04:25:48;22.30;99.90
3790;DHT22;1910;49.042;9.028;2023-09-18T04:28:16;22.10;99.90
3790;DHT22;1910;49.042;9.028;2023-09-18T04:30:43;21.70;99.90
3790;DHT22;1910;49.042;9.028;2023-09-18T04:33:08;21.50;99.90
3790;DHT22;1910;49.042;9.028;2023-09-18T04:35:34;21.10;99.90
3790;DHT22;1910;49.042;9.028;2023-09-18T04:37:59;21.00;99.90
3790;DHT22;1910;49.042;9.028;2023-09-18T04:40:25;20.90;99.90
3790;DHT22;1910;49.042;9.028;2023-09-18T04:42:58;20.70;99.90
3790;DHT22;1910;49.042;9.028;2023-09-18T04:45:24;20.40;99.90
3790;DHT22;1910;49.042;9.028;2023-09-18T04:47:50;20.30;99.90
3790;DHT22;1910;49.042;9.028;2023-09-18T04:50:16;20.20;99.90
3790;DHT22;1910;49.042;9.028;2023-09-18T04:52:41;20.20;99.90
3790;DHT22;1910;49.042;9.028;2023-09-18T04:55:09;20.10;99.90
3790;DHT22;1910;49.042;9.028;2023-09-18T04:57:35;20.00;99.90
3790;DHT22;1910;49.042;9.028;2023-09-18T05:02:27;19.70;99.90
3790;DHT22;1910;49.042;9.028;2023-09-18T05:04:55;19.90;99.90
3790;DHT22;1910;49.042;9.028;2023-09-18T05:07:21;19.80;99.90
3790;DHT22;1910;49.042;9.028;2023-09-18T05:09:46;19.90;99.90
3790;DHT22;1910;49.042;9.028;2023-09-18T05:12:12;19.80;99.90
3790;DHT22;1910;49.042;9.028;2023-09-18T05:14:43;19.80;99.90
3790;DHT22;1910;49.042;9.028;2023-09-18T05:17:15;19.80;99.90
3790;DHT22;1910;49.042;9.028;2023-09-18T05:19:42;19.90;99.90
3790;DHT22;1910;49.042;9.028;2023-09-18T05:22:08;19.80;99.90
3790;DHT22;1910;49.042;9.028;2023-09-18T05:24:38;19.80;99.90
3790;DHT22;1910;49.042;9.028;2023-09-18T05:27:04;19.90;99.90
3790;DHT22;1910;49.042;9.028;2023-09-18T05:29:31;19.80;99.90
3790;DHT22;1910;49.042;9.028;2023-09-18T05:31:57;19.80;99.90
3790;DHT22;1910;49.042;9.028;2023-09-18T05:34:23;19.80;99.90
3790;DHT22;1910;49.042;9.028;2023-09-18T05:36:48;19.90;99.90
3790;DHT22;1910;49.042;9.028;2023-09-18T05:39:15;19.80;99.90
3790;DHT22;1910;49.042;9.028;2023-09-18T05:41:40;19.80;99.90
3790;DHT22;1910;49.042;9.028;2023-09-18T05:44:06;19.70;99.90
3790;DHT22;1910;49.042;9.028;2023-09-18T05:46:34;19.70;99.90
3790;DHT22;1910;49.042;9.028;2023-09-18T05:49:00;19.60;99.90
3790;DHT22;1910;49.042;9.028;2023-09-18T05:51:26;19.50;99.90
3790;DHT22;1910;49.042;9.028;2023-09-18T05:53:52;19.60;99.90
3790;DHT22;1910;49.042;9.028;2023-09-18T05:56:18;19.70;99.90
3790;DHT22;1910;49.042;9.028;2023-09-18T05:58:43;19.70;99.90
3790;DHT22;1910;49.042;9.028;2023-09-18T06:01:09;19.80;99.90
3790;DHT22;1910;49.042;9.028;2023-09-18T06:03:35;19.80;99.90
3790;DHT22;1910;49.042;9.028;2023-09-18T06:06:05;19.80;99.90
3790;DHT22;1910;49.042;9.028;2023-09-18T06:08:31;19.80;99.90
3790;DHT22;1910;49.042;9.028;2023-09-18T06:10:57;19.90;99.90
3790;DHT22;1910;49.042;9.028;2023-09-18T06:13:24;20.00;99.90
3790;DHT22;1910;49.042;9.028;2023-09-18T06:15:51;20.20;99.90
3790;DHT22;1910;49.042;9.028;2023-09-18T06:18:18;20.30;99.90
3790;DHT22;1910;49.042;9.028;2023-09-18T06:20:46;20.40;99.90
3790;DHT22;1910;49.042;9.028;2023-09-18T06:23:12;20.40;99.90
3790;DHT22;1910;49.042;9.028;2023-09-18T06:25:38;20.50;99.90
3790;DHT22;1910;49.042;9.028;2023-09-18T06:28:04;20.40;99.90
3790;DHT22;1910;49.042;9.028;2023-09-18T06:30:30;20.50;99.90
3790;DHT22;1910;49.042;9.028;2023-09-18T06:33:01;20.50;99.90
3790;DHT22;1910;49.042;9.028;2023-09-18T06:35:26;20.40;99.90
3790;DHT22;1910;49.042;9.028;2023-09-18T06:37:52;21.00;99.90
3790;DHT22;1910;49.042;9.028;2023-09-18T06:40:20;20.50;99.90
3790;DHT22;1910;49.042;9.028;2023-09-18T06:42:45;20.50;99.90
3790;DHT22;1910;49.042;9.028;2023-09-18T06:45:11;20.50;99.90
3790;DHT22;1910;49.042;9.028;2023-09-18T06:47:38;20.50;99.90
3790;DHT22;1910;49.042;9.028;2023-09-18T06:50:06;20.50;99.90
3790;DHT22;1910;49.042;9.028;2023-09-18T06:52:32;20.60;99.90
3790;DHT22;1910;49.042;9.028;2023-09-18T06:54:57;20.60;99.90
3790;DHT22;1910;49.042;9.028;2023-09-18T06:57:23;20.70;99.90
3790;DHT22;1910;49.042;9.028;2023-09-18T06:59:49;20.70;99.90
3790;DHT22;1910;49.042;9.028;2023-09-18T07:02:15;20.90;99.90
3790;DHT22;1910;49.042;9.028;2023-09-18T07:04:42;21.00;99.90
3790;DHT22;1910;49.042;9.028;2023-09-18T07:07:14;21.00;99.90
3790;DHT22;1910;49.042;9.028;2023-09-18T07:09:41;21.00;99.90
3790;DHT22;1910;49.042;9.028;2023-09-18T07:12:10;20.90;99.90
3790;DHT22;1910;49.042;9.028;2023-09-18T07:14:36;21.20;99.90
3790;DHT22;1910;49.042;9.028;2023-09-18T07:17:03;21.30;99.90
3790;DHT22;1910;49.042;9.028;2023-09-18T07:19:29;21.40;99.90
3790;DHT22;1910;49.042;9.028;2023-09-18T07:21:55;21.50;99.90
3790;DHT22;1910;49.042;9.028;2023-09-18T07:24:20;21.50;99.90
3790;DHT22;1910;49.042;9.028;2023-09-18T07:26:47;21.40;99.90
3790;DHT22;1910;49.042;9.028;2023-09-18T07:29:16;21.40;99.90
3790;DHT22;1910;49.042;9.028;2023-09-18T07:31:42;21.20;99.90
3790;DHT22;1910;49.042;9.028;2023-09-18T07:34:09;21.20;99.90
3790;DHT22;1910;49.042;9.028;2023-09-18T07:36:35;21.30;99.90
3790;DHT22;1910;49.042;9.028;2023-09-18T07:39:00;21.40;99.90
3790;DHT22;1910;49.042;9.028;2023-09-18T07:41:26;21.60;99.90
3790;DHT22;1910;49.042;9.028;2023-09-18T07:43:51;21.80;99.90
3790;DHT22;1910;49.042;9.028;2023-09-18T07:46:17;21.80;99.90
3790;DHT22;1910;49.042;9.028;2023-09-18T07:48:42;21.80;99.90
3790;DHT22;1910;49.042;9.028;2023-09-18T07:51:12;21.70;99.90
3790;DHT22;1910;49.042;9.028;2023-09-18T07:53:37;21.70;99.90
3790;DHT22;1910;49.042;9.028;2023-09-18T07:56:03;21.70;99.90
3790;DHT22;1910;49.042;9.028;2023-09-18T07:58:30;21.70;99.90
3790;DHT22;1910;49.042;9.028;2023-09-18T08:00:56;21.60;99.90
3790;DHT22;1910;49.042;9.028;2023-09-18T08:03:25;21.40;99.90
3790;DHT22;1910;49.042;9.028;2023-09-18T08:05:52;21.30;99.90
3790;DHT22;1910;49.042;9.028;2023-09-18T08:08:19;21.20;99.90
3790;DHT22;1910;49.042;9.028;2023-09-18T08:10:46;21.40;99.90
3790;DHT22;1910;49.042;9.028;2023-09-18T08:13:12;21.80;99.90
3790;DHT22;1910;49.042;9.028;2023-09-18T08:15:38;22.20;99.90
3790;DHT22;1910;49.042;9.028;2023-09-18T08:18:04;22.40;99.90
3790;DHT22;1910;49.042;9.028;2023-09-18T08:20:29;22.80;99.90
3790;DHT22;1910;49.042;9.028;2023-09-18T08:22:55;23.30;99.90
3790;DHT22;1910;49.042;9.028;2023-09-18T08:25:22;23.70;99.90
3790;DHT22;1910;49.042;9.028;2023-09-18T08:27:47;24.10;99.90
3790;DHT22;1910;49.042;9.028;2023-09-18T08:30:14;24.10;99.90
3790;DHT22;1910;49.042;9.028;2023-09-18T08:32:41;23.50;99.90
3790;DHT22;1910;49.042;9.028;2023-09-18T08:35:08;22.60;99.90
3790;DHT22;1910;49.042;9.028;2023-09-18T08:37:34;22.40;99.90
3790;DHT22;1910;49.042;9.028;2023-09-18T08:39:59;21.70;99.90
3790;DHT22;1910;49.042;9.028;2023-09-18T08:42:35;21.80;99.90
3790;DHT22;1910;49.042;9.028;2023-09-18T08:45:07;21.40;99.90
3790;DHT22;1910;49.042;9.028;2023-09-18T08:47:34;21.40;99.90
3790;DHT22;1910;49.042;9.028;2023-09-18T08:50:00;21.50;99.90
3790;DHT22;1910;49.042;9.028;2023-09-18T08:52:27;21.50;99.90
3790;DHT22;1910;49.042;9.028;2023-09-18T08:54:54;21.80;99.90
3790;DHT22;1910;49.042;9.028;2023-09-18T08:57:21;21.50;99.90
3790;DHT22;1910;49.042;9.028;2023-09-18T08:59:48;21.20;99.90
3790;DHT22;1910;49.042;9.028;2023-09-18T09:02:15;20.80;99.90
3790;DHT22;1910;49.042;9.028;2023-09-18T09:04:41;20.40;99.90
3790;DHT22;1910;49.042;9.028;2023-09-18T09:07:07;20.10;99.90
3790;DHT22;1910;49.042;9.028;2023-09-18T09:09:34;20.00;99.90
3790;DHT22;1910;49.042;9.028;2023-09-18T09:11:59;19.80;99.90
3790;DHT22;1910;49.042;9.028;2023-09-18T09:14:25;19.60;99.90
3790;DHT22;1910;49.042;9.028;2023-09-18T09:16:54;19.40;99.90
3790;DHT22;1910;49.042;9.028;2023-09-18T09:19:31;19.20;99.90
3790;DHT22;1910;49.042;9.028;2023-09-18T09:21:58;19.10;99.90
3790;DHT22;1910;49.042;9.028;2023-09-18T09:24:43;19.10;99.90
3790;DHT22;1910;49.042;9.028;2023-09-18T09:27:09;19.00;99.90
3790;DHT22;1910;49.042;9.028;2023-09-18T09:29:36;19.00;99.90
3790;DHT22;1910;49.042;9.028;2023-09-18T09:32:16;19.00;99.90
3790;DHT22;1910;49.042;9.028;2023-09-18T09:34:42;18.90;99.90
3790;DHT22;1910;49.042;9.028;2023-09-18T09:37:08;18.80;99.90
3790;DHT22;1910;49.042;9.028;2023-09-18T09:39:34;18.70;99.90
3790;DHT22;1910;49.042;9.028;2023-09-18T09:42:00;18.70;99.90
3790;DHT22;1910;49.042;9.028;2023-09-18T09:44:32;18.80;99.90
3790;DHT22;1910;49.042;9.028;2023-09-18T09:46:59;18.90;99.90
3790;DHT22;1910;49.042;9.028;2023-09-18T09:49:25;18.90;99.90
3790;DHT22;1910;49.042;9.028;2023-09-18T09:51:53;18.90;99.90
3790;DHT22;1910;49.042;9.028;2023-09-18T09:54:32;18.90;99.90
3790;DHT22;1910;49.042;9.028;2023-09-18T09:57:05;18.90;99.90
3790;DHT22;1910;49.042;9.028;2023-09-18T09:59:32;19.00;99.90
3790;DHT22;1910;49.042;9.028;2023-09-18T10:02:01;19.10;99.90
3790;DHT22;1910;49.042;9.028;2023-09-18T10:04:29;19.20;99.90
3790;DHT22;1910;49.042;9.028;2023-09-18T10:07:05;19.40;99.90
3790;DHT22;1910;49.042;9.028;2023-09-18T10:09:35;19.70;99.90
3790;DHT22;1910;49.042;9.028;2023-09-18T10:12:03;19.90;99.90
3790;DHT22;1910;49.042;9.028;2023-09-18T10:14:32;20.20;99.90
3790;DHT22;1910;49.042;9.028;2023-09-18T10:17:04;20.20;99.90
3790;DHT22;1910;49.042;9.028;2023-09-18T10:20:08;20.20;99.90
3790;DHT22;1910;49.042;9.028;2023-09-18T10:22:38;20.10;99.90
3790;DHT22;1910;49.042;9.028;2023-09-18T10:25:14;20.00;99.90
3790;DHT22;1910;49.042;9.028;2023-09-18T10:27:47;19.80;99.90
3790;DHT22;1910;49.042;9.028;2023-09-18T10:30:15;19.60;99.90
3790;DHT22;1910;49.042;9.028;2023-09-18T10:32:44;19.50;99.90
3790;DHT22;1910;49.042;9.028;2023-09-18T10:35:14;19.40;99.90
3790;DHT22;1910;49.042;9.028;2023-09-18T10:37:41;19.30;99.90
3790;DHT22;1910;49.042;9.028;2023-09-18T10:40:09;20.90;99.90
3790;DHT22;1910;49.042;9.028;2023-09-18T10:42:37;19.50;99.90
3790;DHT22;1910;49.042;9.028;2023-09-18T10:45:04;19.50;99.90
3790;DHT22;1910;49.042;9.028;2023-09-18T10:47:31;19.40;99.90
3790;DHT22;1910;49.042;9.028;2023-09-18T10:49:57;19.30;99.90
3790;DHT22;1910;49.042;9.028;2023-09-18T10:52:22;19.40;99.90
3790;DHT22;1910;49.042;9.028;2023-09-18T10:54:48;19.40;99.90
3790;DHT22;1910;49.042;9.028;2023-09-18T10:57:14;19.40;99.90
3790;DHT22;1910;49.042;9.028;2023-09-18T10:59:46;20.20;99.90
3790;DHT22;1910;49.042;9.028;2023-09-18T11:02:16;19.50;99.90
3790;DHT22;1910;49.042;9.028;2023-09-18T11:04:44;19.80;99.90
3790;DHT22;1910;49.042;9.028;2023-09-18T11:07:19;19.70;99.90
3790;DHT22;1910;49.042;9.028;2023-09-18T11:09:45;19.60;99.90
3790;DHT22;1910;49.042;9.028;2023-09-18T11:12:14;19.60;99.90
3790;DHT22;1910;49.042;9.028;2023-09-18T11:17:34;19.60;99.90
3790;DHT22;1910;49.042;9.028;2023-09-18T11:20:04;19.60;99.90
3790;DHT22;1910;49.042;9.028;2023-09-18T11:25:44;19.50;99.90
3790;DHT22;1910;49.042;9.028;2023-09-18T11:28:16;19.60;99.90
3790;DHT22;1910;49.042;9.028;2023-09-18T11:31:00;19.80;99.90
3790;DHT22;1910;49.042;9.028;2023-09-18T11:33:38;20.00;99.90
3790;DHT22;1910;49.042;9.028;2023-09-18T11:36:09;20.00;99.90
3790;DHT22;1910;49.042;9.028;2023-09-18T11:38:57;20.20;99.90
3790;DHT22;1910;49.042;9.028;2023-09-18T11:41:29;20.50;99.90
3790;DHT22;1910;49.042;9.028;2023-09-18T11:46:38;20.70;99.90
3790;DHT22;1910;49.042;9.028;2023-09-18T11:49:10;20.60;99.90
3790;DHT22;1910;49.042;9.028;2023-09-18T11:51:36;20.60;99.90
3790;DHT22;1910;49.042;9.028;2023-09-18T11:54:03;20.60;99.90
3790;DHT22;1910;49.042;9.028;2023-09-18T11:56:32;20.70;99.90
3790;DHT22;1910;49.042;9.028;2023-09-18T11:58:59;20.90;99.90
3790;DHT22;1910;49.042;9.028;2023-09-18T12:01:30;20.90;99.90
3790;DHT22;1910;49.042;9.028;2023-09-18T12:04:03;20.80;99.90
3790;DHT22;1910;49.042;9.028;2023-09-18T12:06:36;20.80;99.90
3790;DHT22;1910;49.042;9.028;2023-09-18T12:09:03;20.90;99.90
3790;DHT22;1910;49.042;9.028;2023-09-18T12:11:29;21.00;99.90
3790;DHT22;1910;49.042;9.028;2023-09-18T12:13:55;20.70;99.90
3790;DHT22;1910;49.042;9.028;2023-09-18T12:16:21;20.60;99.90
3790;DHT22;1910;49.042;9.028;2023-09-18T12:18:48;20.40;99.90
3790;DHT22;1910;49.042;9.028;2023-09-18T12:21:14;20.40;99.90
3790;DHT22;1910;49.042;9.028;2023-09-18T12:23:41;20.30;99.90
3790;DHT22;1910;49.042;9.028;2023-09-18T12:26:12;20.10;99.90
3790;DHT22;1910;49.042;9.028;2023-09-18T12:28:39;20.20;99.90
3790;DHT22;1910;49.042;9.028;2023-09-18T12:31:05;20.40;99.90
3790;DHT22;1910;49.042;9.028;2023-09-18T12:33:36;20.70;99.90
3790;DHT22;1910;49.042;9.028;2023-09-18T12:36:03;20.70;99.90
3790;DHT22;1910;49.042;9.028;2023-09-18T12:38:30;21.00;99.90
3790;DHT22;1910;49.042;9.028;2023-09-18T12:40:56;22.10;99.90
3790;DHT22;1910;49.042;9.028;2023-09-18T12:43:26;21.10;99.90
3790;DHT22;1910;49.042;9.028;2023-09-18T12:45:55;21.00;99.90
3790;DHT22;1910;49.042;9.028;2023-09-18T12:48:21;20.80;99.90
3790;DHT22;1910;49.042;9.028;2023-09-18T12:50:52;20.90;99.90
3790;DHT22;1910;49.042;9.028;2023-09-18T12:53:22;21.00;99.90
3790;DHT22;1910;49.042;9.028;2023-09-18T12:55:48;21.30;99.90
3790;DHT22;1910;49.042;9.028;2023-09-18T12:58:19;21.70;99.90
3790;DHT22;1910;49.042;9.028;2023-09-18T13:00:48;22.10;99.90
3790;DHT22;1910;49.042;9.028;2023-09-18T13:03:17;22.20;99.90
3790;DHT22;1910;49.042;9.028;2023-09-18T13:05:43;22.30;99.90
3790;DHT22;1910;49.042;9.028;2023-09-18T13:08:09;22.20;99.90
3790;DHT22;1910;49.042;9.028;2023-09-18T13:10:45;22.10;99.90
3790;DHT22;1910;49.042;9.028;2023-09-18T13:13:21;21.80;99.90
3790;DHT22;1910;49.042;9.028;2023-09-18T13:15:48;21.90;99.90
3790;DHT22;1910;49.042;9.028;2023-09-18T13:18:14;22.10;99.90
3790;DHT22;1910;49.042;9.028;2023-09-18T13:20:40;22.20;99.90
3790;DHT22;1910;49.042;9.028;2023-09-18T13:23:07;22.10;99.90
3790;DHT22;1910;49.042;9.028;2023-09-18T13:25:34;22.00;99.90
3790;DHT22;1910;49.042;9.028;2023-09-18T13:28:03;21.80;99.90
3790;DHT22;1910;49.042;9.028;2023-09-18T13:30:30;21.60;99.90
3790;DHT22;1910;49.042;9.028;2023-09-18T13:33:04;21.60;99.90
3790;DHT22;1910;49.042;9.028;2023-09-18T13:35:32;21.70;99.90
3790;DHT22;1910;49.042;9.028;2023-09-18T13:37:58;21.80;99.90
3790;DHT22;1910;49.042;9.028;2023-09-18T13:40:23;21.60;99.90
3790;DHT22;1910;49.042;9.028;2023-09-18T13:42:49;21.50;99.90
3790;DHT22;1910;49.042;9.028;2023-09-18T13:45:15;21.60;99.90
3790;DHT22;1910;49.042;9.028;2023-09-18T13:47:44;22.20;99.90
3790;DHT22;1910;49.042;9.028;2023-09-18T13:50:11;21.70;99.90
3790;DHT22;1910;49.042;9.028;2023-09-18T13:52:38;22.20;99.90
3790;DHT22;1910;49.042;9.028;2023-09-18T13:55:04;22.40;99.90
3790;DHT22;1910;49.042;9.028;2023-09-18T13:57:35;22.50;99.90
3790;DHT22;1910;49.042;9.028;2023-09-18T14:00:02;22.60;99.90
3790;DHT22;1910;49.042;9.028;2023-09-18T14:02:32;22.50;99.90
3790;DHT22;1910;49.042;9.028;2023-09-18T14:04:58;22.10;99.90
3790;DHT22;1910;49.042;9.028;2023-09-18T14:07:23;21.80;99.90
3790;DHT22;1910;49.042;9.028;2023-09-18T14:09:49;22.10;99.90
3790;DHT22;1910;49.042;9.028;2023-09-18T14:12:15;22.20;99.90
3790;DHT22;1910;49.042;9.028;2023-09-18T14:14:44;21.90;99.90
3790;DHT22;1910;49.042;9.028;2023-09-18T14:17:10;21.80;99.90
3790;DHT22;1910;49.042;9.028;2023-09-18T14:19:36;21.70;99.90
3790;DHT22;1910;49.042;9.028;2023-09-18T14:22:05;21.70;99.90
3790;DHT22;1910;49.042;9.028;2023-09-18T14:24:31;21.60;99.90
3790;DHT22;1910;49.042;9.028;2023-09-18T14:27:00;21.60;99.90
3790;DHT22;1910;49.042;9.028;2023-09-18T14:29:25;21.60;99.90
3790;DHT22;1910;49.042;9.028;2023-09-18T14:31:52;21.50;99.90
3790;DHT22;1910;49.042;9.028;2023-09-18T14:34:17;21.50;99.90
3790;DHT22;1910;49.042;9.028;2023-09-18T14:36:43;21.70;99.90
3790;DHT22;1910;49.042;9.028;2023-09-18T14:39:10;21.80;99.90
3790;DHT22;1910;49.042;9.028;2023-09-18T14:41:36;22.00;99.90
3790;DHT22;1910;49.042;9.028;2023-09-18T14:44:04;22.30;99.90
3790;DHT22;1910;49.042;9.028;2023-09-18T14:46:30;22.70;99.90
3790;DHT22;1910;49.042;9.028;2023-09-18T14:48:59;22.90;99.90
3790;DHT22;1910;49.042;9.028;2023-09-18T14:51:24;22.90;99.90
3790;DHT22;1910;49.042;9.028;2023-09-18T14:53:50;22.80;99.90
3790;DHT22;1910;49.042;9.028;2023-09-18T14:56:15;22.90;99.90
3790;DHT22;1910;49.042;9.028;2023-09-18T14:58:42;23.00;99.90
3790;DHT22;1910;49.042;9.028;2023-09-18T15:01:09;23.00;99.90
3790;DHT22;1910;49.042;9.028;2023-09-18T15:03:36;22.80;99.90
3790;DHT22;1910;49.042;9.028;2023-09-18T15:06:02;22.90;99.90
3790;DHT22;1910;49.042;9.028;2023-09-18T15:08:27;22.70;99.90
3790;DHT22;1910;49.042;9.028;2023-09-18T15:10:53;22.80;99.90
3790;DHT22;1910;49.042;9.028;2023-09-18T15:13:18;22.50;99.90
3790;DHT22;1910;49.042;9.028;2023-09-18T15:15:44;22.70;99.90
3790;DHT22;1910;49.042;9.028;2023-09-18T15:18:11;22.70;99.90
3790;DHT22;1910;49.042;9.028;2023-09-18T15:20:38;22.70;99.90
3790;DHT22;1910;49.042;9.028;2023-09-18T15:23:06;22.90;99.90
3790;DHT22;1910;49.042;9.028;2023-09-18T15:25:33;22.90;99.90
3790;DHT22;1910;49.042;9.028;2023-09-18T15:28:04;22.90;99.90
3790;DHT22;1910;49.042;9.028;2023-09-18T15:30:30;22.80;99.90
3790;DHT22;1910;49.042;9.028;2023-09-18T15:32:56;22.90;99.90
3790;DHT22;1910;49.042;9.028;2023-09-18T15:35:23;23.00;99.90
3790;DHT22;1910;49.042;9.028;2023-09-18T15:37:49;23.00;99.90
3790;DHT22;1910;49.042;9.028;2023-09-18T15:40:15;22.70;99.90
3790;DHT22;1910;49.042;9.028;2023-09-18T15:42:43;23.00;99.90
3790;DHT22;1910;49.042;9.028;2023-09-18T15:45:10;22.80;99.90
3790;DHT22;1910;49.042;9.028;2023-09-18T15:47:43;22.70;99.90
3790;DHT22;1910;49.042;9.028;2023-09-18T15:50:09;22.60;99.90
3790;DHT22;1910;49.042;9.028;2023-09-18T15:52:36;22.60;99.90
3790;DHT22;1910;49.042;9.028;2023-09-18T15:55:02;22.40;99.90
3790;DHT22;1910;49.042;9.028;2023-09-18T15:57:30;22.30;99.90
3790;DHT22;1910;49.042;9.028;2023-09-18T15:59:56;22.00;99.90
3790;DHT22;1910;49.042;9.028;2023-09-18T16:02:24;21.90;99.90
3790;DHT22;1910;49.042;9.028;2023-09-18T16:04:50;21.90;99.90
3790;DHT22;1910;49.042;9.028;2023-09-18T16:07:18;21.90;99.90
3790;DHT22;1910;49.042;9.028;2023-09-18T16:09:44;21.70;99.90
3790;DHT22;1910;49.042;9.028;2023-09-18T16:12:09;21.60;99.90
3790;DHT22;1910;49.042;9.028;2023-09-18T16:14:35;21.50;99.90
3790;DHT22;1910;49.042;9.028;2023-09-18T16:17:00;21.40;99.90
3790;DHT22;1910;49.042;9.028;2023-09-18T16:19:30;21.40;99.90